• Join FlightAware (Why Join?)
  • Login
  • US Flag 
11:39PM EST


 

Airport Tracker/Info


-or-


 

Live Flight TrackerFlight Track Log ✈ TAM3076 ✈ 18-Aug-2013 ✈ SBGL / GIG - SBVT / VIX

Flight Track Log - Related Links

Times and Time Zones

All times are in EDT time to prevent confusion due to time zone crossing. See the TAM3076 flight status page for this flight to view local times or setup timezone preferences in your user account.

Time Position Orientation Groundspeed Altitude Reporting Facility
EDT Latitude Longitude Course Direction KTS MPH feet Rate Location/Type
09:29AM -22.7740 -43.1820 46° Northeast 191 220 1,100  Level FlightAware
09:29AM -22.7670 -43.1760 38° Northeast 206 237 1,400 2,069 Climbing FlightAware
09:29AM -22.7510 -43.1660 30° Northeast 218 251 2,100 2,700 Climbing FlightAware
09:30AM -22.7310 -43.1570 23° Northeast 220 253 3,200 3,286 Climbing FlightAware
09:30AM -22.7170 -43.1330 58° Northeast 217 250 4,400 3,000 Climbing FlightAware
09:30AM -22.7150 -43.1210 80° East 222 255 4,900 2,700 Climbing FlightAware
09:30AM -22.7100 -43.1140 52° Northeast 226 260 5,300 2,750 Climbing FlightAware
09:31AM -22.6980 -43.1010 45° Northeast 229 264 6,000 2,550 Climbing FlightAware
09:31AM -22.6770 -43.0850 35° Northeast 239 275 7,000 1,909 Climbing FlightAware
09:31AM -22.6570 -43.0690 36° Northeast 265 305 7,400 1,636 Climbing FlightAware
09:32AM -22.6340 -43.0480 40° Northeast 282 325 8,200 2,143 Climbing FlightAware
09:32AM -22.6170 -43.0320 41° Northeast 288 331 8,900 2,100 Climbing FlightAware
09:32AM -22.5930 -43.0090 42° Northeast 306 352 9,600 1,700 Climbing FlightAware
09:33AM -22.5520 -42.9700 41° Northeast 335 386 10,600 1,457 Climbing FlightAware
09:34AM -22.5120 -42.9320 41° Northeast 366 421 11,300 1,853 Climbing FlightAware
09:34AM -22.4650 -42.8870 42° Northeast 376 433 12,700 2,057 Climbing FlightAware
09:35AM -22.4190 -42.8430 41° Northeast 392 451 13,700 2,273 Climbing FlightAware
09:35AM -22.3780 -42.8030 42° Northeast 388 447 15,200 2,417 Climbing FlightAware
09:36AM -22.3220 -42.7500 41° Northeast 397 457 16,600 2,049 Climbing FlightAware
09:37AM -22.2630 -42.6940 41° Northeast 404 465 18,000 2,027 Climbing FlightAware
09:37AM -22.2190 -42.6520 41° Northeast 405 466 19,100 1,692 Climbing FlightAware
09:38AM -22.1540 -42.5900 41° Northeast 418 481 20,200 1,149 Climbing FlightAware
09:39AM -22.1180 -42.5510 45° Northeast 427 491 20,900 1,275 Climbing FlightAware
09:39AM -22.0770 -42.5000 49° Northeast 428 493 21,900 1,846 Climbing FlightAware
09:40AM -22.0360 -42.4490 49° Northeast 428 493 22,900 1,662 Climbing FlightAware
09:40AM -21.9910 -42.3930 49° Northeast 434 499 23,700 1,397 Climbing FlightAware
09:41AM -21.9400 -42.3300 49° Northeast 439 505 24,600 1,600 Climbing FlightAware
09:42AM -21.8590 -42.2300 49° Northeast 452 520 25,700 1,652 Climbing FlightAware
09:42AM -21.8130 -42.1740 49° Northeast 452 520 26,500 1,167 Climbing FlightAware
09:43AM -21.7610 -42.1100 49° Northeast 458 527 27,100 904 Climbing FlightAware
09:43AM -21.7090 -42.0480 48° Northeast 465 535 27,600 1,478 Climbing FlightAware
09:44AM -21.6630 -41.9900 50° Northeast 454 522 28,800 1,500 Climbing FlightAware
09:44AM -21.6200 -41.9390 48° Northeast 460 529 29,200 761 Climbing FlightAware
09:45AM -21.5640 -41.8710 48° Northeast 467 537 29,700 786 Climbing FlightAware
09:46AM -21.5050 -41.7990 49° Northeast 474 545 30,300 741 Climbing FlightAware
09:47AM -21.4510 -41.7330 49° Northeast 481 554 30,700 600 Climbing FlightAware
09:47AM -21.4070 -41.6800 48° Northeast 472 543 31,000 247 Climbing FlightAware
09:48AM -21.3460 -41.6060 48° Northeast 469 540 31,000  Level FlightAware
09:49AM -21.2790 -41.5250 48° Northeast 467 537 31,000 -143 Level FlightAware
09:49AM -21.2280 -41.4630 49° Northeast 468 539 30,800 -537 Descending FlightAware
09:50AM -21.1840 -41.4100 48° Northeast 473 544 30,400 -1,286 Descending FlightAware
09:50AM -21.1270 -41.3410 48° Northeast 479 551 29,300 -1,826 Descending FlightAware
09:51AM -21.0870 -41.2920 49° Northeast 476 548 28,300 -1,448 Descending FlightAware
09:52AM -21.0150 -41.2070 48° Northeast 471 542 27,200 -717 Descending FlightAware
09:52AM -20.9710 -41.1530 49° Northeast 471 542 27,200  Level FlightAware
09:53AM -20.9140 -41.0860 48° Northeast 471 542 27,200  Level FlightAware
09:54AM -20.8680 -41.0310 48° Northeast 471 542 27,200  Level FlightAware
09:54AM -20.8220 -40.9770 48° Northeast 471 542 27,200  Level FlightAware
09:55AM -20.7780 -40.9240 48° Northeast 471 542 27,200  Level FlightAware
09:58AM -20.6747 -40.7968 49° Northeast  Level Estimated
09:59AM -20.6345 -40.7473 49° Northeast  Level Estimated
10:00AM -20.5942 -40.6978 49° Northeast  Level Estimated
10:01AM -20.5539 -40.6483 49° Northeast  Level Estimated
10:02AM -20.5136 -40.5989 49° Northeast  Level Estimated
10:03AM -20.4733 -40.5494 49° Northeast  Level Estimated
10:04AM -20.4329 -40.5000 49° Northeast  Level Estimated
10:05AM -20.3926 -40.4507 49° Northeast  Level Estimated
10:06AM -20.3522 -40.4013 49° Northeast  Level Estimated
10:07AM -20.3119 -40.3520 49° Northeast  Level Estimated
10:08AM -20.2715 -40.3027 49° Northeast  Level Estimated
10:09AM -20.2581 -40.2864 49° Northeast  Level Estimated
10:10AM -20.2581 -40.2864 13° North  Level Estimated
10:11AM -20.2581 -40.2864 13° North  Level Estimated
10:12AM -20.2581 -40.2864 13° North  Level Estimated
10:13AM -20.2581 -40.2864 13° North  Level Estimated
10:14AM -20.2581 -40.2864 13° North  Level Estimated
10:15AM -20.2581 -40.2864 13° North  Level Estimated
10:16AM -20.2581 -40.2864 13° North  Level Estimated
10:17AM -20.2581 -40.2864 13° North  Level Estimated
10:18AM -20.2581 -40.2864 13° North  Level Estimated
10:19AM -20.2581 -40.2864 13° North  Level Estimated
10:20AM -20.2581 -40.2864 13° North  Level Estimated
10:21AM -20.2581 -40.2864 13° North  Level Estimated
10:22AM -20.2581 -40.2864 13° North  Level Estimated
10:23AM -20.2581 -40.2864 13° North  Level Estimated
10:24AM -20.2581 -40.2864 13° North  Level Estimated
10:25AM -20.2581 -40.2864 13° North  Level Estimated
10:26AM -20.2581 -40.2864 13° North  Level Estimated
10:27AM -20.2581 -40.2864 13° North  Level Estimated
10:28AM -20.2581 -40.2864 13° North  Level Estimated
10:29AM -20.2581 -40.2864 13° North  Level Estimated
10:30AM -20.2581 -40.2864 13° North  Level Estimated
10:31AM -20.2581 -40.2864 13° North  Level Estimated
10:32AM -20.2581 -40.2864 13° North  Level Estimated
10:33AM -20.2581 -40.2864 13° North  Level Estimated
10:34AM -20.2581 -40.2864 13° North  Level Estimated
10:35AM -20.2581 -40.2864 13° North  Level Estimated
10:36AM -20.2581 -40.2864 13° North  Level Estimated
10:37AM -20.2581 -40.2864 13° North  Level Estimated
10:38AM -20.2581 -40.2864 13° North  Level Estimated
10:39AM -20.2581 -40.2864 13° North  Level Estimated
10:40AM -20.2581 -40.2864 13° North  Level Estimated
10:41AM -20.2581 -40.2864 13° North  Level Estimated
10:42AM -20.2581 -40.2864 13° North  Level Estimated
10:43AM -20.2581 -40.2864 13° North  Level Estimated
10:44AM -20.2581 -40.2864 13° North  Level Estimated
10:45AM -20.2581 -40.2864 13° North  Level Estimated